Airfield :
LOGIN :

Register | Disclaimer

   EN    FR    IT 

 










Legend :    VFR   Marginal VFR   IFR   Intensive IFR   Very Intensive IFR
Visi :
Ceiling :
>= 8 km
>= 3000ft
5 to 8 km
1000 to 3000 ft
1500m to 5 km
500 to 1000 ft
800 to 1500m
200 to 500 ft
< 800m
< 200 ft
Symbols :   Thunderstorms  Fog  Heavy snow  Heavy precipitations  Wind > 20 kt
SIGMETs :     Misc.  Thunderstorms  Icing  Turbulence  Mountain Waves  Volcanic Ashes







- Airport Elevation : 659 ft
- IATA code : LYN
- Download approach charts


LFLY - Lyon Bron

CURRENT METAR :
  • 161130Z AUTO VRB02KT 9999 // NSC 06/01 Q1016

EXPIRED METARs :
  • 161100Z AUTO VRB01KT 9999 // NSC 05/00 Q1016
  • 161030Z AUTO 00000KT 9999 // NSC 05/M00 Q1017
  • 161000Z AUTO 00000KT 9999 // NSC 03/M00 Q1017
  • 160930Z AUTO 00000KT 9000 // NSC 02/M00 Q1017
  • 160900Z AUTO 00000KT 9000 // NSC M00/M01 Q1017

TAF TAF LFLY
Valid from the 16 at 12:00 until the 17 at 12:00 UTC


161100Z 1612/1712 18010KT CAVOK
TEMPO 1614/1624 18020G35KT
BECMG 1705/1708 BKN050
TEMPO 1708/1712 RA BKN030
ATIS : +33 4 72 15 87 96
No reported NOTAMs for that airfield.



MET'MAP, your aeronautical weather chart ! - Copyright ORBIFLY December 2007 - Disclaimer

ORBIFLY MET'MAP TEAM :

Programming & Development : Alexandra Zaïnal
Concept & Development : Baudouin d'Aumeries
Co-Development & Prog : Marc-Olivier Méhu
Technical & hardware support : Manuel Goepfert

Contact : metmap@orbifly.com




SOURCES & CREDITS :

   NOAA